Terminal Aerodrome Forecast
Issued by NWS Raleigh/Durham, NC

Home | Current Version | Previous Version | Text Only | Print | Product List | Glossary On
Versions: 1 2 3 4 5 6 7 8 9 10 11 12 13 14 15 16 17 18 19 20 21 22 23 24 25
000
FTUS42 KRAH 250540
TAFGSO
TAF
KGSO 250540Z 2506/2606 01004KT 3SM -SHRA BR OVC003
     FM251200 34005KT 4SM -SHRA BKN006 OVC015
     FM251300 34007KT P6SM BKN015
     FM251400 33009G18KT P6SM SCT025 BKN035
      TEMPO 2514/2517 33007KT BKN025=

USA.gov is the U.S. government's official web portal to all federal, state and local government web resources and services.